Collins, IA (50055)

10:19 AM CST on February 10, 2016 (GMT -0600)
Tranquility Base | | Change Station
CLOSE
Current Station
Personal Weather Station
Location: Maxwell, IA
Elevation: 902 ft
Nearby Weather Stations

Elev 902 ft 41.89 °N, 93.40 °W | Updated 14 minutes ago

Snow
Snow
14.2 °F
Feels Like 14 °F
N
2.2
Wind Variable Wind from ENE

Today
High -- | Low -- °F
--% Chance of Precip.
Yesterday
High -- | Low -- °F
Precip. -- in
Pressure 30.11 in
Visibility 0.8 miles
Clouds Mostly Cloudy 1700 ft
Overcast 2300 ft
Windchill 14 °F
Dew Point 11 °F
Humidity 88%
Rainfall 0.00 in
Snow Depth Not available.
7:16 AM 5:39 PM
Waxing Crescent, 6% visible
SPECI KAMW 101616Z AUTO 10003KT 3/4SM -SN BR BKN017 OVC023 M11/M13 A3011 RMK AO2 P0000 T11061128
Pressure 30.11 in
Visibility 0.8 miles
Clouds Mostly Cloudy 1700 ft
Overcast 2300 ft
Windchill 14 °F
Dew Point 11 °F
Humidity 88%
Rainfall 0.00 in
Snow Depth Not available.
7:16 AM 5:39 PM
Waxing Crescent, 6% visible
SPECI KAMW 101616Z AUTO 10003KT 3/4SM -SN BR BKN017 OVC023 M11/M13 A3011 RMK AO2 P0000 T11061128

10-Day Weather Forecast

Almanac

Astronomy

Feb. 10, 2016 Rise Set
Actual Time
Civil Twilight
Nautical Twilight
Astronomical Twilight
Moon
Length of Visible Light
Length of Day
Tomorrow will be .
, % of the Moon is Illuminated

Today's Extremes

State Highs State Lows

Community

WunderPhotos

Upload Photos

1,891,864 photos uploaded!

WunderBlog® & News

Nearby

Air Quality

  Air Quality AQ Index Pollutant
Not available.

Snow Depth

Station Depth Elevation

Earthquake Activity

City Distance Mag. Time & Date
Minimum magnitude displayed is 2.5.

Coastal Water Temperatures

Place Temperature

Stations

Nearby Weather Stations

Station Location Temp. Windchill Dew Point Humidity Wind Precip. Elev Updated Type
                   

Watches & Warnings

There are currently no watches in effect.